Flight Track Log - Related Links

Times and Time Zones

All times are in EDT time to prevent confusion due to time zone crossing. See the SWA1319 flight status page for this flight to view local times or setup timezone preferences in your user account.

Time Position Orientation Groundspeed Altitude Reporting Facility
EDT Latitude Longitude Course Direction KTS MPH feet Rate Location/Type
Wed 10:45:53 AM 39.1333 -76.6667 211° Southwest 195 224 2,400  Level Potomac TRACON
Wed 10:46:53 AM 39.1667 -76.7333 303° West 244 281 4,200 1,930 Climbing Potomac TRACON
Wed 10:47:48 AM 39.2000 -76.8000 303° West 268 308 6,100 2,504 Climbing Potomac TRACON
Wed 10:48:48 AM 39.2000 -76.8833 270° West 272 313 9,000 2,900 Climbing Potomac TRACON
Wed 10:49:48 AM 39.2167 -76.9833 282° West 255 293 11,900 2,250 Climbing Potomac TRACON
Wed 10:50:48 AM 39.2167 -77.1000 270° West 327 376 13,500 1,878 Climbing Potomac TRACON
Wed 10:51:00 AM 39.0526 -77.2684 211° Southwest  Level FlightAware
Wed 10:51:43 AM 39.1833 -77.1833 243° Southwest 342 394 15,500  Level Potomac TRACON
Wed 10:52:43 AM 39.1000 -77.2500 212° Southwest 366 421 17,400 1,900 Climbing Potomac TRACON
Wed 10:53:43 AM 39.0000 -77.3333 213° Southwest 382 440 19,300 1,656 Climbing Potomac TRACON
Wed 10:55:55 AM 38.8050 -77.4617 207° Southwest 424 488 22,700 1,469 Climbing Washington Center
Wed 10:56:55 AM 38.6953 -77.5414 210° Southwest 419 482 24,000 1,350 Climbing Washington Center
Wed 10:57:55 AM 38.6022 -77.6344 218° Southwest 424 488 25,400 1,650 Climbing Washington Center
Wed 10:58:55 AM 38.5064 -77.7356 220° Southwest 424 488 27,300 1,800 Climbing Washington Center
Wed 10:59:55 AM 38.4419 -77.8475 234° Southwest 424 488 29,000 1,500 Climbing Washington Center
Wed 11:00:55 AM 38.3814 -77.9650 237° Southwest 419 482 30,300 1,400 Climbing Washington Center
Wed 11:01:55 AM 38.3225 -78.0822 237° Southwest 414 476 31,800 1,500 Climbing Washington Center
Wed 11:02:55 AM 38.2617 -78.1964 236° Southwest 408 470 33,300 1,100 Climbing Washington Center
Wed 11:03:55 AM 38.2031 -78.3106 237° Southwest 403 464 34,000 350 Climbing Washington Center
Wed 11:04:55 AM 38.1442 -78.4219 236° Southwest 398 458 34,000  Level Washington Center
Wed 11:05:55 AM 38.0928 -78.5547 244° Southwest 392 451 34,000  Level Washington Center
Wed 11:06:55 AM 38.0567 -78.6667 248° West 385 443 34,000  Level Washington Center
Wed 11:07:55 AM 38.0139 -78.7942 247° West 390 449 34,000  Level Washington Center
Wed 11:08:55 AM 37.9686 -78.9186 245° Southwest 390 449 34,000  Level Washington Center
Wed 11:09:55 AM 37.9231 -79.0586 248° West 390 449 34,000  Level Washington Center
Wed 11:10:55 AM 37.8717 -79.1747 241° Southwest 390 449 34,000  Level Washington Center
Wed 11:11:55 AM 37.8117 -79.2928 237° Southwest 390 449 34,000  Level Washington Center
Wed 11:12:55 AM 37.7558 -79.4083 239° Southwest 390 449 34,000  Level Washington Center
Wed 11:13:55 AM 37.7025 -79.5081 236° Southwest 395 455 34,000  Level Washington Center
Wed 11:14:55 AM 37.6400 -79.6358 238° Southwest 395 455 34,000  Level Washington Center
Wed 11:15:55 AM 37.5864 -79.7378 236° Southwest 390 449 34,000  Level Washington Center
Wed 11:16:55 AM 37.5233 -79.8706 239° Southwest 390 449 34,000  Level Washington Center
Wed 11:17:55 AM 37.4650 -79.9825 237° Southwest 396 456 34,000  Level Washington Center
Wed 11:18:55 AM 37.4133 -80.0842 237° Southwest 396 456 34,000  Level Washington Center
Wed 11:19:29 AM 37.3731 -80.1583 236° Southwest 401 461 34,000  Level Atlanta Center
Wed 11:20:29 AM 37.3200 -80.2575 236° Southwest 389 448 34,000  Level Atlanta Center
Wed 11:21:29 AM 37.2628 -80.3697 237° Southwest 384 442 34,000  Level Atlanta Center
Wed 11:22:29 AM 37.2036 -80.4819 237° Southwest 384 442 34,000  Level Atlanta Center
Wed 11:23:29 AM 37.1464 -80.5939 237° Southwest 384 442 34,000  Level Atlanta Center
Wed 11:24:29 AM 37.0831 -80.7192 238° Southwest 384 442 34,000  Level Atlanta Center
Wed 11:25:29 AM 37.0403 -80.8378 246° West 384 442 34,000  Level Atlanta Center
Wed 11:26:29 AM 36.9978 -80.9592 246° West 378 435 34,000  Level Atlanta Center
Wed 11:27:29 AM 36.9567 -81.0697 245° Southwest 384 442 34,000  Level Atlanta Center
Wed 11:28:29 AM 36.9156 -81.1881 247° West 384 442 34,000  Level Atlanta Center
Wed 11:29:29 AM 36.8725 -81.3092 246° West 384 442 34,000  Level Atlanta Center
Wed 11:30:29 AM 36.8269 -81.4247 244° Southwest 384 442 34,000  Level Atlanta Center
Wed 11:31:29 AM 36.7897 -81.5350 247° West 384 442 34,000  Level Atlanta Center
Wed 11:32:29 AM 36.7483 -81.6606 248° West 374 430 34,000  Level Atlanta Center
Wed 11:33:29 AM 36.7047 -81.7808 246° West 374 430 34,000  Level Atlanta Center
Wed 11:34:29 AM 36.6589 -81.8986 244° Southwest 380 437 34,000  Level Atlanta Center
Wed 11:35:29 AM 36.6172 -82.0161 246° West 380 437 34,000  Level Atlanta Center
Wed 11:36:29 AM 36.5733 -82.1361 246° West 380 437 34,000  Level Atlanta Center
Wed 11:37:29 AM 36.5272 -82.2561 244° Southwest 380 437 34,000  Level Atlanta Center
Wed 11:38:29 AM 36.4828 -82.3733 245° Southwest 380 437 34,000  Level Atlanta Center
Wed 11:39:29 AM 36.4344 -82.5058 246° West 380 437 34,000  Level Atlanta Center
Wed 11:40:29 AM 36.3900 -82.6253 245° Southwest 380 437 34,000  Level Atlanta Center
Wed 11:41:29 AM 36.3433 -82.7422 244° Southwest 380 437 34,000  Level Atlanta Center
Wed 11:42:29 AM 36.2989 -82.8639 246° West 380 437 34,000  Level Atlanta Center
Wed 11:43:29 AM 36.2539 -82.9831 245° Southwest 380 437 34,000  Level Atlanta Center
Wed 11:44:29 AM 36.2089 -83.0994 244° Southwest 380 437 34,000  Level Atlanta Center
Wed 11:45:29 AM 36.1639 -83.2183 245° Southwest 380 437 34,000  Level Atlanta Center
Wed 11:46:29 AM 36.1208 -83.3319 245° Southwest 380 437 34,000  Level Atlanta Center
Wed 11:47:29 AM 36.0778 -83.4478 245° Southwest 380 437 34,000  Level Atlanta Center
Wed 11:48:29 AM 36.0406 -83.5406 244° Southwest 380 437 34,000  Level Atlanta Center
Wed 11:49:29 AM 35.9931 -83.6692 245° Southwest 380 437 34,000  Level Atlanta Center
Wed 11:50:29 AM 35.9494 -83.7822 245° Southwest 380 437 34,000  Level Atlanta Center
Wed 11:51:29 AM 35.9017 -83.8953 242° Southwest 375 432 34,000  Level Atlanta Center
Wed 11:52:29 AM 35.8350 -83.9953 231° Southwest 375 432 34,000  Level Atlanta Center
Wed 11:53:29 AM 35.7642 -84.0925 228° Southwest 380 437 34,000  Level Atlanta Center
Wed 11:54:29 AM 35.6953 -84.1897 229° Southwest 380 437 34,000  Level Atlanta Center
Wed 11:55:29 AM 35.6242 -84.2867 228° Southwest 385 443 34,000  Level Atlanta Center
Wed 11:56:29 AM 35.5550 -84.3833 229° Southwest 385 443 34,000  Level Atlanta Center
Wed 11:57:29 AM 35.4839 -84.4825 229° Southwest 385 443 34,000  Level Atlanta Center
Wed 11:58:29 AM 35.4125 -84.5789 228° Southwest 385 443 34,000  Level Atlanta Center
Wed 11:59:29 AM 35.3433 -84.6728 228° Southwest 385 443 34,000  Level Atlanta Center
Wed 12:00:29 PM 35.2739 -84.7714 229° Southwest 385 443 34,000  Level Atlanta Center
Wed 12:01:29 PM 35.2000 -84.8750 229° Southwest 385 443 34,000  Level Atlanta Center
Wed 12:02:29 PM 35.1264 -84.9708 227° Southwest 385 443 34,000  Level Atlanta Center
Wed 12:03:29 PM 35.0589 -85.0664 229° Southwest 385 443 34,000  Level Atlanta Center
Wed 12:04:29 PM 34.9869 -85.1619 227° Southwest 385 443 34,000  Level Atlanta Center
Wed 12:05:29 PM 34.9194 -85.2547 228° Southwest 385 443 34,000  Level Atlanta Center
Wed 12:06:29 PM 34.8517 -85.3447 227° Southwest 385 443 34,000  Level Atlanta Center
Wed 12:07:29 PM 34.7819 -85.4372 227° Southwest 385 443 34,000  Level Atlanta Center
Wed 12:08:29 PM 34.7139 -85.5272 227° Southwest 380 437 34,000  Level Atlanta Center
Wed 12:09:29 PM 34.6483 -85.6169 228° Southwest 369 425 34,000 -1,433 Level Atlanta Center
Wed 12:11:29 PM 34.5164 -85.7958 228° Southwest 358 412 29,700 -2,333 Descending Atlanta Center
Wed 12:12:29 PM 34.4525 -85.8753 226° Southwest 363 418 27,000 -3,000 Descending Atlanta Center
Wed 12:13:29 PM 34.3822 -85.9692 228° Southwest 368 423 23,700 -3,200 Descending Atlanta Center
Wed 12:14:29 PM 34.2894 -86.0300 208° Southwest 376 433 20,600 -2,950 Descending Atlanta Center
Wed 12:15:29 PM 34.1950 -86.0706 200° South 376 433 17,800 -2,900 Descending Atlanta Center
Wed 12:16:29 PM 34.1044 -86.1086 199° South 362 417 14,800 -3,186 Descending Atlanta Center
Wed 12:17:22 PM 34.0222 -86.1592 207° Southwest 313 360 11,800 -2,400 Descending Atlanta Center
Wed 12:18:04 PM 33.9817 -86.2108 227° Southwest 304 350 11,000 -716 Descending Atlanta Center
Wed 12:18:29 PM 33.9711 -86.2281 234° Southwest 310 357 11,000  Level Atlanta Center
Wed 12:19:11 PM 33.9283 -86.2744 222° Southwest 231 266 11,000  Level Atlanta Center
Wed 12:19:29 PM 33.9200 -86.2817 216° Southwest 281 323 11,000 -200 Level Atlanta Center
Wed 12:20:11 PM 33.8858 -86.3258 227° Southwest 212 244 10,800 -800 Descending Atlanta Center
Wed 12:20:29 PM 33.8750 -86.3356 217° Southwest 252 290 10,200 -2,361 Descending Atlanta Center
Wed 12:21:12 PM 33.8303 -86.3869 224° Southwest 254 292 8,400 -2,000 Descending Atlanta Center
Wed 12:21:29 PM 33.8239 -86.3917 212° Southwest 247 284 8,200 -1,377 Descending Atlanta Center
Wed 12:22:13 PM 33.7792 -86.4431 224° Southwest 254 292 7,000 -1,400 Descending Atlanta Center
Wed 12:22:29 PM 33.7728 -86.4478 212° Southwest 252 290 6,800 -1,200 Descending Atlanta Center
Wed 12:23:13 PM 33.7281 -86.4992 224° Southwest 245 282 5,800 -1,200 Descending Atlanta Center
Wed 12:23:29 PM 33.7236 -86.5014 203° Southwest 245 282 5,600 -1,180 Descending Atlanta Center
Wed 12:24:14 PM 33.6811 -86.5478 222° Southwest 231 266 4,600 -1,200 Descending Atlanta Center
Wed 12:24:29 PM 33.6789 -86.5525 241° Southwest 239 275 4,400 -1,600 Descending Atlanta Center
Wed 12:25:14 PM 33.6486 -86.6092 237° Southwest 203 234 3,000 -1,400 Descending Atlanta Center
Wed 12:25:29 PM 33.6464 -86.6117 223° Southwest 228 262 3,000 -393 Level Atlanta Center
Wed 12:26:15 PM 33.6225 -86.6508 234° Southwest 137 158 2,600 -690 Descending Atlanta Center
Wed 12:27:22 PM 33.6008 -86.6925 238° Southwest 122 140 1,700 -756 Descending Atlanta Center
Wed 12:28:22 PM 33.5792 -86.7292 235° Southwest 133 153 1,000 -700 Descending Atlanta Center
Wed 12:30:00 PM 33.5639 -86.7523 140° Southeast  Level Estimated
Wed 12:37:00 PM 33.5639 -86.7523 140° Southeast  Level Estimated

Login

Don't have an account? Register now (free) for customized features, flight alerts, and more!